createdAt,value
2022-08-17T00:04:18.854Z,68.29
2022-08-17T00:14:18.923Z,64.62
2022-08-17T00:24:19.611Z,64.51
2022-08-17T00:34:19.257Z,64.92
2022-08-17T00:44:19.640Z,65.42
2022-08-17T00:54:19.679Z,66.55
2022-08-17T01:04:20.016Z,69.22
2022-08-17T01:14:20.061Z,72.00
2022-08-17T01:24:20.340Z,72.74
2022-08-17T01:34:20.426Z,75.68
2022-08-17T01:44:20.691Z,73.18
2022-08-17T01:54:20.716Z,71.73
2022-08-17T02:04:20.934Z,66.05
2022-08-17T02:14:20.980Z,62.78
2022-08-17T02:24:58.754Z,68.19
2022-08-17T02:34:22.496Z,73.47
2022-08-17T02:44:39.468Z,74.85
2022-08-17T02:54:40.318Z,74.85
2022-08-17T03:04:23.054Z,74.35
2022-08-17T03:14:26.131Z,76.40
2022-08-17T03:24:25.702Z,77.55
2022-08-17T03:34:23.524Z,80.20
2022-08-17T03:44:22.793Z,80.33
2022-08-17T03:54:23.022Z,81.18
2022-08-17T04:04:27.722Z,80.78
2022-08-17T04:14:23.346Z,80.78
2022-08-17T04:24:23.694Z,77.08
2022-08-17T04:34:23.721Z,76.30
2022-08-17T04:44:36.803Z,77.40
2022-08-17T04:54:25.116Z,77.91
2022-08-17T05:04:34.559Z,78.78
2022-08-17T05:14:33.175Z,76.09
2022-08-17T05:24:43.109Z,76.15
2022-08-17T05:34:25.784Z,73.67
2022-08-17T05:44:25.113Z,73.07
2022-08-17T05:54:25.145Z,70.46
2022-08-17T06:04:25.445Z,70.62
2022-08-17T06:14:25.605Z,71.77
2022-08-17T06:24:25.689Z,73.03
2022-08-17T06:34:25.735Z,71.19
2022-08-17T06:44:49.675Z,72.93
2022-08-17T06:54:27.138Z,73.00
2022-08-17T07:04:26.361Z,73.43
2022-08-17T07:14:26.673Z,71.36
2022-08-17T07:24:30.460Z,68.96
2022-08-17T07:34:26.785Z,70.56
2022-08-17T07:44:26.987Z,69.86
2022-08-17T07:54:27.028Z,70.19
2022-08-17T08:04:49.918Z,65.48
2022-08-17T08:14:28.851Z,63.85
2022-08-17T08:24:30.169Z,63.36
2022-08-17T08:34:54.736Z,66.18
2022-08-17T08:44:59.050Z,61.77
2022-08-17T08:54:29.159Z,62.73
2022-08-17T09:04:28.495Z,66.05
2022-08-17T09:14:29.332Z,63.90
2022-08-17T09:24:28.638Z,57.89
2022-08-17T09:34:33.263Z,57.48
2022-08-17T09:44:29.061Z,52.93
2022-08-17T09:54:44.669Z,53.28
2022-08-17T10:04:30.455Z,56.31
2022-08-17T10:14:36.869Z,52.56
2022-08-17T10:24:30.864Z,51.05
2022-08-17T10:34:29.964Z,50.09
2022-08-17T10:44:38.043Z,48.27
2022-08-17T10:54:31.109Z,47.78
2022-08-17T11:04:30.392Z,48.17
2022-08-17T11:14:30.432Z,49.73
2022-08-17T11:24:30.744Z,46.06
2022-08-17T11:34:30.782Z,48.43
2022-08-17T11:44:31.086Z,49.40
2022-08-17T11:54:33.425Z,45.94
2022-08-17T12:04:31.350Z,45.40
2022-08-17T12:15:05.739Z,44.76
2022-08-17T12:24:32.663Z,46.88
2022-08-17T12:34:31.961Z,46.41
2022-08-17T12:44:32.002Z,46.95
2022-08-17T12:54:34.595Z,48.25
2022-08-17T13:04:32.455Z,47.91
2022-08-17T13:14:33.278Z,45.24
2022-08-17T13:24:38.206Z,44.62
2022-08-17T13:34:34.126Z,43.90
2022-08-17T13:44:33.406Z,46.09
2022-08-17T13:54:33.770Z,46.11
2022-08-17T14:04:33.810Z,45.16
2022-08-17T14:14:34.113Z,45.26
2022-08-17T14:24:34.168Z,47.69
2022-08-17T14:34:34.457Z,48.89
2022-08-17T14:44:34.483Z,49.23
2022-08-17T14:54:34.811Z,50.07
2022-08-17T15:04:34.856Z,51.42
2022-08-17T15:14:35.166Z,53.39
2022-08-17T15:24:35.208Z,51.64
2022-08-17T15:34:35.616Z,54.70
2022-08-17T15:44:35.656Z,52.85
2022-08-17T15:54:36.088Z,54.70
2022-08-17T16:04:36.317Z,54.03
2022-08-17T16:14:36.283Z,56.23
2022-08-17T16:24:36.607Z,53.20
2022-08-17T16:34:36.637Z,52.58
2022-08-17T16:44:36.948Z,52.39
2022-08-17T16:54:36.979Z,55.77
2022-08-17T17:04:37.289Z,53.03
2022-08-17T17:14:37.390Z,54.51
2022-08-17T17:24:37.542Z,56.54
2022-08-17T17:34:37.575Z,57.56
2022-08-17T17:44:37.914Z,58.87
2022-08-17T17:54:37.946Z,59.30
2022-08-17T18:04:38.267Z,58.73
2022-08-17T18:14:38.392Z,60.67
2022-08-17T18:24:38.504Z,60.30
2022-08-17T18:34:46.974Z,60.13
2022-08-17T18:44:39.794Z,59.44
2022-08-17T18:54:39.116Z,65.06
2022-08-17T19:04:39.183Z,69.26
2022-08-17T19:14:39.357Z,69.96
2022-08-17T19:24:47.723Z,71.39
2022-08-17T19:34:40.502Z,77.07
2022-08-17T19:44:39.819Z,81.40
2022-08-17T19:54:39.868Z,74.28
2022-08-17T20:04:40.340Z,74.51
2022-08-17T20:14:40.370Z,72.49
2022-08-17T20:24:41.433Z,67.96
2022-08-17T20:34:40.761Z,67.46
2022-08-17T20:44:40.792Z,69.49
2022-08-17T20:54:41.134Z,69.76
2022-08-17T21:04:41.174Z,69.99
2022-08-17T21:14:41.462Z,69.69
2022-08-17T21:24:41.492Z,72.26
2022-08-17T21:34:41.805Z,72.69
2022-08-17T21:44:41.847Z,68.06
2022-08-17T21:54:42.166Z,73.46
2022-08-17T22:04:42.569Z,76.64
2022-08-17T22:14:53.003Z,82.97
2022-08-17T22:24:43.498Z,83.11
2022-08-17T22:34:42.984Z,82.54
2022-08-17T22:44:42.809Z,82.04
2022-08-17T22:54:43.108Z,83.04
2022-08-17T23:04:43.148Z,79.77
2022-08-17T23:14:43.459Z,80.57
2022-08-17T23:24:43.479Z,79.53
2022-08-17T23:34:43.803Z,80.43
2022-08-17T23:44:43.810Z,82.68
2022-08-17T23:54:44.155Z,81.62
